Time;durP1;ratioP1;P1;durP2;ratioP2;P2;SDS_P1;SDS_P2;PMS_P1;PMS_P2;Temp;Humidity;BMP_temperature;BMP_pressure;BME280_temperature;BME280_humidity;BME280_pressure;Samples;Min_cycle;Max_cycle;Signal;HPM_P1;HPM_P2
2023/03/19 00:02:22;;;;;;;13.73;6.18;;;;;;;;;;8466037;28;20496;-79
2023/03/19 00:06:26;;;;;;;15.85;6.95;;;;;;;;;;8464814;28;20067;-78
2023/03/19 00:10:30;;;;;;;16.80;7.22;;;;;;;;;;8466165;28;20043;-79
2023/03/19 00:14:33;;;;;;;17.58;6.90;;;;;;;;;;8449678;28;20059;-80
2023/03/19 00:18:36;;;;;;;18.45;8.00;;;;;;;;;;8452182;28;20051;-89
2023/03/19 00:22:39;;;;;;;13.32;6.25;;;;;;;;;;8441252;28;20042;-80
2023/03/19 00:26:43;;;;;;;18.33;6.72;;;;;;;;;;8429494;28;20054;-77
2023/03/19 00:30:46;;;;;;;16.08;6.65;;;;;;;;;;8417122;28;20043;-79
2023/03/19 00:34:49;;;;;;;15.00;6.28;;;;;;;;;;8448372;28;20048;-79
2023/03/19 00:38:53;;;;;;;16.42;7.03;;;;;;;;;;8432687;28;20048;-79
2023/03/19 00:42:57;;;;;;;20.17;7.07;;;;;;;;;;8426220;28;20491;-79
2023/03/19 00:47:00;;;;;;;18.92;7.72;;;;;;;;;;8443845;28;20642;-78
2023/03/19 00:51:04;;;;;;;16.02;7.07;;;;;;;;;;8424290;28;20471;-78
2023/03/19 00:55:07;;;;;;;17.85;7.13;;;;;;;;;;8457883;28;20047;-78
2023/03/19 00:59:12;;;;;;;25.05;7.95;;;;;;;;;;8464319;28;20502;-78
2023/03/19 01:03:15;;;;;;;18.02;7.05;;;;;;;;;;8458636;28;20427;-79
2023/03/19 01:07:17;;;;;;;16.98;6.95;;;;;;;;;;8434435;28;20047;-79
2023/03/19 01:11:20;;;;;;;16.98;7.53;;;;;;;;;;8449632;28;20422;-84
2023/03/19 01:15:25;;;;;;;20.73;7.72;;;;;;;;;;8462758;28;20051;-78
2023/03/19 01:19:28;;;;;;;19.73;8.15;;;;;;;;;;8423927;28;20135;-78
2023/03/19 01:23:31;;;;;;;20.50;7.63;;;;;;;;;;8452895;28;20193;-78
2023/03/19 01:27:34;;;;;;;22.15;8.38;;;;;;;;;;8446621;28;20051;-79
2023/03/19 01:31:39;;;;;;;17.98;7.75;;;;;;;;;;8442276;28;20391;-80
2023/03/19 01:35:42;;;;;;;22.45;8.75;;;;;;;;;;8446551;28;20047;-79
2023/03/19 01:39:45;;;;;;;19.67;8.10;;;;;;;;;;8462211;28;20072;-78
2023/03/19 01:43:48;;;;;;;19.00;8.27;;;;;;;;;;8463273;28;20039;-78
2023/03/19 01:47:53;;;;;;;23.23;8.32;;;;;;;;;;8457544;28;20070;-78
2023/03/19 01:51:59;;;;;;;19.75;7.97;;;;;;;;;;8456094;28;20040;-78
2023/03/19 01:56:05;;;;;;;20.95;7.90;;;;;;;;;;8431957;28;20122;-79
2023/03/19 02:00:11;;;;;;;19.25;8.13;;;;;;;;;;8414113;28;20049;-78
2023/03/19 02:04:15;;;;;;;18.40;6.82;;;;;;;;;;8424961;28;20135;-78
2023/03/19 02:08:21;;;;;;;15.52;8.02;;;;;;;;;;8417708;28;20051;-78
2023/03/19 02:12:24;;;;;;;16.30;7.55;;;;;;;;;;8435582;28;20134;-80
2023/03/19 02:16:27;;;;;;;15.93;6.47;;;;;;;;;;8448222;28;20036;-78
2023/03/19 02:20:37;;;;;;;15.90;7.72;;;;;;;;;;8454285;28;20043;-79
2023/03/19 02:24:48;;;;;;;18.70;7.15;;;;;;;;;;8434683;28;20586;-79
2023/03/19 02:28:53;;;;;;;18.23;7.40;;;;;;;;;;8463779;28;20044;-79
2023/03/19 02:32:56;;;;;;;16.67;6.65;;;;;;;;;;8468729;28;20054;-79
2023/03/19 02:37:03;;;;;;;13.00;6.75;;;;;;;;;;8468191;28;20046;-79
2023/03/19 02:41:08;;;;;;;11.45;5.82;;;;;;;;;;8468492;28;20048;-78
2023/03/19 02:45:13;;;;;;;17.40;5.80;;;;;;;;;;8468558;28;20048;-78
2023/03/19 02:49:16;;;;;;;15.68;6.57;;;;;;;;;;8632321;22;20052;-82
2023/03/19 02:53:19;;;;;;;14.70;7.07;;;;;;;;;;8401469;28;20049;-84
2023/03/19 02:57:22;;;;;;;13.18;6.65;;;;;;;;;;8401347;28;20052;-84
2023/03/19 03:01:27;;;;;;;12.95;5.78;;;;;;;;;;8401473;28;20048;-81
2023/03/19 03:05:30;;;;;;;13.50;6.38;;;;;;;;;;8401097;28;20077;-81
2023/03/19 03:09:32;;;;;;;14.25;6.50;;;;;;;;;;8402188;28;20141;-81
2023/03/19 03:13:36;;;;;;;14.15;6.85;;;;;;;;;;8429044;28;20051;-81
2023/03/19 03:17:41;;;;;;;13.00;6.10;;;;;;;;;;8422401;28;20048;-81
2023/03/19 03:21:44;;;;;;;14.88;7.05;;;;;;;;;;8433435;28;20083;-81
2023/03/19 03:25:50;;;;;;;15.00;6.43;;;;;;;;;;8426311;28;20381;-86
2023/03/19 03:29:53;;;;;;;16.85;5.55;;;;;;;;;;8433066;28;20044;-82
2023/03/19 03:33:57;;;;;;;16.48;6.30;;;;;;;;;;8432873;28;20051;-82
2023/03/19 03:38:00;;;;;;;12.90;5.75;;;;;;;;;;8418001;28;20047;-83
2023/03/19 03:42:02;;;;;;;14.85;7.20;;;;;;;;;;8431492;28;20044;-81
2023/03/19 03:46:06;;;;;;;17.63;7.07;;;;;;;;;;8432453;28;20403;-81
2023/03/19 03:50:11;;;;;;;15.32;6.57;;;;;;;;;;8432336;28;20109;-82
2023/03/19 03:54:14;;;;;;;14.93;7.43;;;;;;;;;;8433008;28;20040;-84
2023/03/19 03:58:17;;;;;;;12.93;6.57;;;;;;;;;;8432522;28;20052;-84
2023/03/19 04:02:20;;;;;;;15.50;7.40;;;;;;;;;;8432153;28;20056;-82
2023/03/19 04:06:26;;;;;;;15.32;6.47;;;;;;;;;;8432313;28;20044;-80
2023/03/19 04:10:30;;;;;;;18.15;6.57;;;;;;;;;;8432379;28;20040;-80
2023/03/19 04:14:32;;;;;;;14.88;6.97;;;;;;;;;;8431530;28;20051;-83
2023/03/19 04:18:35;;;;;;;14.95;6.10;;;;;;;;;;8430068;28;20048;-81
2023/03/19 04:22:40;;;;;;;13.18;6.15;;;;;;;;;;8431778;28;20460;-82
2023/03/19 04:26:43;;;;;;;16.02;7.30;;;;;;;;;;8431330;28;20036;-81
2023/03/19 04:30:46;;;;;;;15.80;6.30;;;;;;;;;;8418230;28;20048;-80
2023/03/19 04:34:48;;;;;;;18.40;6.97;;;;;;;;;;8431543;28;20050;-81
2023/03/19 04:38:53;;;;;;;17.20;7.93;;;;;;;;;;8431211;28;20398;-82
2023/03/19 04:42:56;;;;;;;14.45;6.65;;;;;;;;;;8396911;28;20045;-84
2023/03/19 04:46:59;;;;;;;18.90;8.82;;;;;;;;;;8420163;28;20040;-83
2023/03/19 04:51:02;;;;;;;18.80;8.85;;;;;;;;;;8389582;28;20049;-82
2023/03/19 04:55:08;;;;;;;21.30;11.15;;;;;;;;;;8429396;28;20475;-80
2023/03/19 04:59:10;;;;;;;13.38;8.13;;;;;;;;;;8430226;28;20051;-81
2023/03/19 05:03:13;;;;;;;19.40;7.80;;;;;;;;;;8399210;28;20076;-83
2023/03/19 05:07:16;;;;;;;14.30;7.18;;;;;;;;;;8429996;28;20039;-81
2023/03/19 05:11:20;;;;;;;29.98;13.73;;;;;;;;;;8378861;28;20105;-84
2023/03/19 05:15:23;;;;;;;19.92;8.32;;;;;;;;;;8423674;28;20477;-84
2023/03/19 05:19:26;;;;;;;25.60;10.07;;;;;;;;;;8429752;28;20047;-81
2023/03/19 05:23:29;;;;;;;14.73;7.45;;;;;;;;;;8429517;28;20047;-82
2023/03/19 05:27:34;;;;;;;16.92;7.82;;;;;;;;;;8429214;28;20380;-81
2023/03/19 05:31:38;;;;;;;17.80;8.43;;;;;;;;;;8429229;28;20050;-81
2023/03/19 05:35:40;;;;;;;19.17;9.30;;;;;;;;;;8429275;28;20048;-83
2023/03/19 05:39:43;;;;;;;15.95;7.63;;;;;;;;;;8428977;28;20049;-82
2023/03/19 05:43:48;;;;;;;15.38;6.97;;;;;;;;;;8429427;28;20051;-83
2023/03/19 05:47:51;;;;;;;13.20;7.07;;;;;;;;;;8402600;28;20070;-81
2023/03/19 05:51:53;;;;;;;14.48;7.28;;;;;;;;;;8415889;28;20059;-81
2023/03/19 05:55:56;;;;;;;20.00;9.05;;;;;;;;;;8402249;28;20040;-82
2023/03/19 06:00:01;;;;;;;23.10;11.65;;;;;;;;;;8428634;28;20048;-82
2023/03/19 06:04:04;;;;;;;27.00;13.32;;;;;;;;;;8402550;28;20452;-83
2023/03/19 06:08:07;;;;;;;18.30;9.20;;;;;;;;;;8410858;28;20135;-81
2023/03/19 06:12:10;;;;;;;28.85;15.73;;;;;;;;;;8428614;28;20458;-84
2023/03/19 06:16:15;;;;;;;38.88;20.50;;;;;;;;;;8408335;28;20090;-83
2023/03/19 06:20:18;;;;;;;18.13;9.45;;;;;;;;;;8422499;28;20044;-82
2023/03/19 06:24:21;;;;;;;22.98;11.48;;;;;;;;;;8427793;28;20044;-82
2023/03/19 06:28:24;;;;;;;16.00;9.50;;;;;;;;;;8428178;28;20115;-82
2023/03/19 06:32:29;;;;;;;34.83;18.45;;;;;;;;;;8427586;28;20044;-83
2023/03/19 06:36:32;;;;;;;16.00;9.85;;;;;;;;;;8430360;28;20044;-86
2023/03/19 06:40:35;;;;;;;21.33;11.60;;;;;;;;;;8428441;28;20407;-84
2023/03/19 06:44:38;;;;;;;16.88;8.98;;;;;;;;;;8419235;28;20071;-84
2023/03/19 06:48:42;;;;;;;17.80;11.02;;;;;;;;;;8383944;28;20061;-87
2023/03/19 06:52:45;;;;;;;17.25;9.52;;;;;;;;;;8402835;28;20116;-85
2023/03/19 06:56:48;;;;;;;13.88;8.90;;;;;;;;;;8416826;28;20108;-83
2023/03/19 07:00:51;;;;;;;14.30;9.20;;;;;;;;;;8438269;28;20130;-84
2023/03/19 07:04:56;;;;;;;16.30;9.57;;;;;;;;;;8439121;28;20625;-83
2023/03/19 07:08:58;;;;;;;18.13;9.85;;;;;;;;;;8437540;28;20040;-82
2023/03/19 07:13:01;;;;;;;18.38;9.30;;;;;;;;;;8430046;28;20097;-83
2023/03/19 07:17:04;;;;;;;16.70;8.88;;;;;;;;;;8428840;28;20056;-86
2023/03/19 07:21:09;;;;;;;17.08;9.73;;;;;;;;;;8407882;28;20097;-82
2023/03/19 07:25:12;;;;;;;14.45;8.98;;;;;;;;;;8405431;28;20098;-82
2023/03/19 07:29:16;;;;;;;18.02;10.07;;;;;;;;;;8399041;28;20411;-82
2023/03/19 07:33:19;;;;;;;13.38;8.98;;;;;;;;;;8399620;28;20055;-82
2023/03/19 07:37:24;;;;;;;16.25;8.30;;;;;;;;;;8426961;28;20067;-83
2023/03/19 07:41:27;;;;;;;13.15;7.97;;;;;;;;;;8413515;28;20036;-83
2023/03/19 07:45:30;;;;;;;13.55;7.90;;;;;;;;;;8420768;28;20052;-82
2023/03/19 07:49:33;;;;;;;11.38;7.20;;;;;;;;;;8386288;28;20566;-83
2023/03/19 07:53:37;;;;;;;12.70;7.30;;;;;;;;;;8418813;28;20126;-83
2023/03/19 07:57:43;;;;;;;11.73;7.03;;;;;;;;;;8403454;28;20043;-84
2023/03/19 08:01:47;;;;;;;10.95;7.35;;;;;;;;;;8364250;28;20040;-87
2023/03/19 08:05:52;;;;;;;11.95;7.22;;;;;;;;;;8384404;28;20037;-84
2023/03/19 08:10:13;;;;;;;10.52;6.78;;;;;;;;;;8407633;28;20498;-82
2023/03/19 08:14:24;;;;;;;11.40;6.40;;;;;;;;;;8412290;28;20040;-82
2023/03/19 08:18:27;;;;;;;11.10;6.65;;;;;;;;;;8371503;28;20056;-80
2023/03/19 08:22:31;;;;;;;11.18;6.93;;;;;;;;;;8378979;28;20132;-84
2023/03/19 08:26:36;;;;;;;11.73;6.13;;;;;;;;;;8391995;28;20056;-84
2023/03/19 08:30:40;;;;;;;11.07;6.38;;;;;;;;;;8386136;28;20074;-84
2023/03/19 08:34:45;;;;;;;10.25;6.43;;;;;;;;;;8384018;28;20052;-85
2023/03/19 08:38:53;;;;;;;11.45;7.18;;;;;;;;;;8377132;28;20811;-85
2023/03/19 08:42:58;;;;;;;12.43;6.50;;;;;;;;;;8383263;28;20127;-85
2023/03/19 08:47:07;;;;;;;10.05;6.18;;;;;;;;;;8387994;28;20376;-83
2023/03/19 08:51:14;;;;;;;12.15;6.65;;;;;;;;;;8397925;28;20047;-84
2023/03/19 08:55:26;;;;;;;11.25;6.10;;;;;;;;;;8380826;28;20506;-83
2023/03/19 08:59:41;;;;;;;13.63;6.90;;;;;;;;;;8380017;28;20044;-83
2023/03/19 09:03:55;;;;;;;12.20;7.28;;;;;;;;;;8388204;28;20052;-83
2023/03/19 09:08:03;;;;;;;12.80;7.10;;;;;;;;;;8382981;28;20980;-83
2023/03/19 09:12:08;;;;;;;14.77;7.40;;;;;;;;;;8378383;28;20045;-85
2023/03/19 09:16:13;;;;;;;14.07;7.75;;;;;;;;;;8366325;28;20059;-84
2023/03/19 09:20:17;;;;;;;12.45;7.45;;;;;;;;;;8405190;28;20052;-83
2023/03/19 09:24:20;;;;;;;15.93;7.95;;;;;;;;;;8385468;28;20041;-86
2023/03/19 09:28:24;;;;;;;14.52;7.82;;;;;;;;;;8397573;28;20044;-84
2023/03/19 09:32:29;;;;;;;12.77;7.25;;;;;;;;;;8384817;28;20401;-84
2023/03/19 09:36:32;;;;;;;12.98;6.68;;;;;;;;;;8391184;28;20471;-85
2023/03/19 09:40:38;;;;;;;12.82;7.47;;;;;;;;;;8384673;28;20117;-83
2023/03/19 09:44:44;;;;;;;14.48;8.30;;;;;;;;;;8386368;28;20059;-85
2023/03/19 09:48:54;;;;;;;12.07;7.82;;;;;;;;;;8383938;28;20108;-83
2023/03/19 09:53:03;;;;;;;16.85;8.57;;;;;;;;;;8392186;28;20170;-82
2023/03/19 09:57:09;;;;;;;12.63;7.60;;;;;;;;;;8380475;28;20503;-83
2023/03/19 10:01:24;;;;;;;16.55;8.45;;;;;;;;;;8376079;28;20055;-82
2023/03/19 10:05:39;;;;;;;12.80;7.80;;;;;;;;;;8382853;28;20056;-83
2023/03/19 10:09:52;;;;;;;11.82;7.18;;;;;;;;;;8412244;28;20484;-84
2023/03/19 10:14:04;;;;;;;14.98;8.90;;;;;;;;;;8365482;28;20502;-87
2023/03/19 10:18:12;;;;;;;11.00;6.85;;;;;;;;;;8368143;28;20118;-83
2023/03/19 10:22:19;;;;;;;11.90;7.43;;;;;;;;;;8376608;28;20113;-83
2023/03/19 10:26:30;;;;;;;13.15;7.88;;;;;;;;;;8374587;28;20044;-82
2023/03/19 10:30:34;;;;;;;13.43;8.25;;;;;;;;;;8370162;28;20142;-85
2023/03/19 10:34:38;;;;;;;12.50;7.28;;;;;;;;;;8372963;28;20054;-85
2023/03/19 10:38:43;;;;;;;13.95;7.50;;;;;;;;;;8376882;28;20062;-85
2023/03/19 10:42:56;;;;;;;10.40;6.72;;;;;;;;;;8376802;28;20056;-87
2023/03/19 10:47:00;;;;;;;12.70;6.57;;;;;;;;;;8394706;28;20040;-86
2023/03/19 10:51:05;;;;;;;15.82;7.97;;;;;;;;;;8386773;28;20049;-89
2023/03/19 10:55:16;;;;;;;10.68;6.10;;;;;;;;;;8379490;28;20052;-85
2023/03/19 10:59:25;;;;;;;13.77;6.60;;;;;;;;;;8418274;28;20072;-83
2023/03/19 11:03:31;;;;;;;13.85;7.15;;;;;;;;;;8403457;28;20044;-84
2023/03/19 11:07:37;;;;;;;12.00;7.00;;;;;;;;;;8429835;28;20044;-88
2023/03/19 11:11:46;;;;;;;11.77;6.50;;;;;;;;;;8430888;28;20071;-82
2023/03/19 11:15:49;;;;;;;11.80;7.10;;;;;;;;;;8432312;28;20048;-87
2023/03/19 11:19:55;;;;;;;9.90;6.05;;;;;;;;;;8433407;28;20082;-87
2023/03/19 11:24:02;;;;;;;11.30;6.40;;;;;;;;;;8434291;28;20135;-86
2023/03/19 11:28:10;;;;;;;10.40;6.25;;;;;;;;;;8433252;28;20044;-83
2023/03/19 11:32:41;;;;;;;10.88;6.35;;;;;;;;;;8433091;28;20553;-87
2023/03/19 11:36:51;;;;;;;13.63;6.60;;;;;;;;;;8433390;28;20530;-88
2023/03/19 11:41:02;;;;;;;15.02;7.28;;;;;;;;;;8432682;28;20838;-83
2023/03/19 11:45:17;;;;;;;14.80;8.18;;;;;;;;;;8432517;28;20040;-88
2023/03/19 11:49:50;;;;;;;13.52;6.97;;;;;;;;;;8432671;28;20059;-87
2023/03/19 11:54:04;;;;;;;15.18;8.07;;;;;;;;;;8432970;28;20044;-86
2023/03/19 11:58:35;;;;;;;13.02;7.22;;;;;;;;;;8432708;28;20132;-85
2023/03/19 12:03:07;;;;;;;12.75;7.53;;;;;;;;;;8431415;28;20043;-86
2023/03/19 12:07:16;;;;;;;;;;;;;;;;;;8433238;28;20503;-86
2023/03/19 12:11:27;;;;;;;15.55;7.32;;;;;;;;;;8432884;28;19928;-87
2023/03/19 12:15:38;;;;;;;13.53;8.93;;;;;;;;;;8432011;28;20067;-87
2023/03/19 12:20:10;;;;;;;25.00;16.57;;;;;;;;;;8431983;28;20181;-89
2023/03/19 12:24:27;;;;;;;13.40;8.77;;;;;;;;;;8431847;28;20047;-87
2023/03/19 12:28:32;;;;;;;12.23;7.50;;;;;;;;;;8431486;28;20069;-84
2023/03/19 12:32:54;;;;;;;12.05;7.57;;;;;;;;;;8431332;28;20040;-87
2023/03/19 12:37:12;;;;;;;12.25;7.13;;;;;;;;;;8431134;28;20036;-89
2023/03/19 12:41:21;;;;;;;11.43;6.05;;;;;;;;;;8430751;28;20127;-83
2023/03/19 12:45:32;;;;;;;12.60;6.50;;;;;;;;;;8430893;28;20044;-88
2023/03/19 12:49:39;;;;;;;11.35;6.78;;;;;;;;;;8404618;28;20135;-88
2023/03/19 12:53:48;;;;;;;12.95;7.25;;;;;;;;;;8430563;28;20127;-88
2023/03/19 12:57:55;;;;;;;12.20;6.70;;;;;;;;;;8430708;28;20043;-84
2023/03/19 13:02:03;;;;;;;11.75;7.82;;;;;;;;;;8430655;28;20043;-86
2023/03/19 13:06:10;;;;;;;13.02;6.55;;;;;;;;;;8412957;28;20040;-84
2023/03/19 13:10:19;;;;;;;13.48;7.68;;;;;;;;;;8429526;28;20063;-83
2023/03/19 13:14:30;;;;;;;12.27;6.90;;;;;;;;;;8391206;28;20058;-88
2023/03/19 13:18:38;;;;;;;11.98;6.80;;;;;;;;;;8384677;28;20091;-90
2023/03/19 13:22:44;;;;;;;11.93;6.18;;;;;;;;;;8384208;28;20495;-90
2023/03/19 13:26:50;;;;;;;11.68;6.13;;;;;;;;;;8422464;28;20491;-85
2023/03/19 13:31:02;;;;;;;15.10;6.38;;;;;;;;;;8392374;28;20048;-89
2023/03/19 13:35:14;;;;;;;11.03;5.67;;;;;;;;;;8420274;28;20052;-87
2023/03/19 13:39:20;;;;;;;11.27;5.93;;;;;;;;;;8426886;28;20036;-90
2023/03/19 13:43:55;;;;;;;9.30;5.75;;;;;;;;;;8426884;28;20040;-89
2023/03/19 13:48:12;;;;;;;8.52;5.65;;;;;;;;;;8407466;28;20139;-88
2023/03/19 13:52:47;;;;;;;9.63;6.18;;;;;;;;;;8410909;28;20604;-88
2023/03/19 13:57:06;;;;;;;14.50;9.18;;;;;;;;;;8429076;28;20047;-87
2023/03/19 14:01:33;;;;;;;10.52;6.45;;;;;;;;;;8428860;28;20070;-85
2023/03/19 14:05:36;;;;;;;8.30;5.30;;;;;;;;;;8429335;28;20452;-88
2023/03/19 14:09:42;;;;;;;11.27;5.57;;;;;;;;;;8387952;28;20102;-84
2023/03/19 14:13:50;;;;;;;11.25;5.00;;;;;;;;;;8371777;28;20522;-88
2023/03/19 14:18:00;;;;;;;9.18;5.55;;;;;;;;;;8381410;28;20048;-85
2023/03/19 14:22:21;;;;;;;11.30;6.35;;;;;;;;;;8376657;28;20049;-84
2023/03/19 14:26:27;;;;;;;12.80;6.03;;;;;;;;;;8383781;28;20125;-83
2023/03/19 14:30:35;;;;;;;10.25;6.05;;;;;;;;;;8392351;28;20044;-84
2023/03/19 14:34:41;;;;;;;10.75;5.68;;;;;;;;;;8395572;28;20048;-82
2023/03/19 14:38:51;;;;;;;11.65;5.70;;;;;;;;;;8383450;28;20557;-84
2023/03/19 14:43:03;;;;;;;9.52;5.72;;;;;;;;;;8392883;28;20068;-88
2023/03/19 14:47:27;;;;;;;9.55;5.28;;;;;;;;;;8368860;28;20067;-84
2023/03/19 14:51:48;;;;;;;8.70;4.57;;;;;;;;;;8390234;28;20105;-82
2023/03/19 14:55:53;;;;;;;9.60;5.35;;;;;;;;;;8392925;28;20101;-85
2023/03/19 14:59:57;;;;;;;10.10;6.03;;;;;;;;;;8385296;28;20041;-88
2023/03/19 15:04:05;;;;;;;9.05;5.63;;;;;;;;;;8398469;28;20495;-85
2023/03/19 15:08:13;;;;;;;10.60;5.70;;;;;;;;;;8405008;28;20052;-86
2023/03/19 15:12:57;;;;;;;9.45;5.35;;;;;;;;;;8387722;28;20059;-84
2023/03/19 15:17:10;;;;;;;11.50;5.82;;;;;;;;;;8230263;28;20057;-85
2023/03/19 15:21:14;;;;;;;10.23;5.35;;;;;;;;;;8393837;28;20044;-88
2023/03/19 15:25:19;;;;;;;10.65;5.97;;;;;;;;;;8386512;28;20052;-88
2023/03/19 15:29:31;;;;;;;10.05;5.47;;;;;;;;;;8381317;28;20511;-90
2023/03/19 15:33:36;;;;;;;9.60;5.18;;;;;;;;;;8375895;28;20072;-84
2023/03/19 15:37:45;;;;;;;10.18;5.47;;;;;;;;;;8380265;28;20048;-88
2023/03/19 15:41:53;;;;;;;11.00;5.65;;;;;;;;;;8392915;28;20052;-85
2023/03/19 15:45:57;;;;;;;11.50;5.88;;;;;;;;;;8382892;28;20044;-85
2023/03/19 15:50:05;;;;;;;9.48;5.30;;;;;;;;;;8389197;28;20068;-87
2023/03/19 15:54:10;;;;;;;10.30;5.30;;;;;;;;;;8392878;28;20408;-90
2023/03/19 15:58:20;;;;;;;13.52;7.13;;;;;;;;;;8394955;28;20059;-86
2023/03/19 16:02:28;;;;;;;21.38;12.95;;;;;;;;;;8395681;28;20355;-83
2023/03/19 16:06:36;;;;;;;11.48;5.85;;;;;;;;;;8377987;28;20053;-84
2023/03/19 16:10:44;;;;;;;12.45;5.80;;;;;;;;;;8391853;28;20131;-85
2023/03/19 16:14:49;;;;;;;10.45;5.85;;;;;;;;;;8387868;28;20070;-84
2023/03/19 16:18:55;;;;;;;11.13;5.90;;;;;;;;;;8372026;28;20109;-84
2023/03/19 16:23:03;;;;;;;12.20;5.30;;;;;;;;;;8381752;28;20056;-84
2023/03/19 16:27:12;;;;;;;11.25;5.85;;;;;;;;;;8394804;28;20091;-85
2023/03/19 16:31:30;;;;;;;11.45;6.30;;;;;;;;;;8389835;28;20471;-84
2023/03/19 16:35:36;;;;;;;13.02;5.75;;;;;;;;;;8392165;28;20044;-83
2023/03/19 16:39:55;;;;;;;13.02;6.63;;;;;;;;;;8378534;28;20071;-83
2023/03/19 16:44:13;;;;;;;11.88;5.75;;;;;;;;;;8393642;28;20060;-86
2023/03/19 16:48:21;;;;;;;11.50;5.82;;;;;;;;;;8381415;28;20409;-82
2023/03/19 16:52:26;;;;;;;12.10;5.53;;;;;;;;;;8377346;28;20044;-83
2023/03/19 16:56:31;;;;;;;12.50;5.80;;;;;;;;;;8376066;28;20127;-84
2023/03/19 17:00:36;;;;;;;9.98;5.45;;;;;;;;;;8375020;28;20060;-83
2023/03/19 17:04:43;;;;;;;13.55;6.60;;;;;;;;;;8369114;28;20059;-83
2023/03/19 17:08:47;;;;;;;47.97;17.38;;;;;;;;;;8383071;28;20125;-83
2023/03/19 17:12:55;;;;;;;32.53;15.27;;;;;;;;;;8374790;28;20044;-84
2023/03/19 17:17:01;;;;;;;49.58;19.48;;;;;;;;;;8378473;28;20113;-84
2023/03/19 17:21:22;;;;;;;49.15;19.38;;;;;;;;;;8374076;28;20056;-84
2023/03/19 17:25:27;;;;;;;46.90;20.38;;;;;;;;;;8371508;28;20515;-84
2023/03/19 17:29:34;;;;;;;27.90;12.82;;;;;;;;;;8379898;28;20048;-83
2023/03/19 17:33:40;;;;;;;28.23;12.15;;;;;;;;;;8366051;28;20062;-84
2023/03/19 17:37:48;;;;;;;25.77;13.40;;;;;;;;;;8363065;28;20103;-83
2023/03/19 17:41:53;;;;;;;30.98;15.23;;;;;;;;;;8376570;28;20041;-81
2023/03/19 17:45:59;;;;;;;130.57;45.20;;;;;;;;;;8316863;28;20062;-83
2023/03/19 17:50:07;;;;;;;39.38;16.13;;;;;;;;;;8397975;28;20069;-82
2023/03/19 17:54:14;;;;;;;34.35;16.65;;;;;;;;;;8378568;28;20060;-83
2023/03/19 17:58:25;;;;;;;43.38;19.00;;;;;;;;;;8378153;28;20041;-87
2023/03/19 18:02:35;;;;;;;35.72;14.52;;;;;;;;;;8373857;28;20499;-83
2023/03/19 18:06:47;;;;;;;67.40;25.52;;;;;;;;;;8376120;28;20052;-82
2023/03/19 18:10:58;;;;;;;33.78;14.73;;;;;;;;;;8378729;28;20642;-82
2023/03/19 18:15:06;;;;;;;27.55;12.93;;;;;;;;;;8383149;28;20086;-86
2023/03/19 18:19:21;;;;;;;30.33;14.20;;;;;;;;;;8373556;28;20049;-83
2023/03/19 18:23:26;;;;;;;27.35;12.80;;;;;;;;;;8374531;28;20051;-83
2023/03/19 18:27:34;;;;;;;29.13;12.45;;;;;;;;;;8376957;28;20123;-83
2023/03/19 18:31:41;;;;;;;22.95;10.23;;;;;;;;;;8385863;28;20040;-84
2023/03/19 18:35:45;;;;;;;28.58;11.63;;;;;;;;;;8392349;28;20108;-84
2023/03/19 18:39:52;;;;;;;99.47;35.85;;;;;;;;;;8399063;28;20040;-85
2023/03/19 18:43:59;;;;;;;29.90;12.32;;;;;;;;;;8427501;28;20504;-84
2023/03/19 18:48:07;;;;;;;19.67;8.85;;;;;;;;;;8393560;28;20064;-84
2023/03/19 18:52:15;;;;;;;23.92;10.68;;;;;;;;;;8387296;28;20059;-85
2023/03/19 18:56:24;;;;;;;20.92;9.40;;;;;;;;;;8361866;28;20040;-85
2023/03/19 19:00:34;;;;;;;;;;;;;;;;;;8397700;28;20559;-84
2023/03/19 19:04:40;;;;;;;21.73;10.40;;;;;;;;;;8405062;28;19964;-82
2023/03/19 19:08:48;;;;;;;19.08;8.77;;;;;;;;;;8413127;28;20085;-83
2023/03/19 19:12:56;;;;;;;24.60;10.65;;;;;;;;;;8356526;28;20403;-84
2023/03/19 19:17:03;;;;;;;23.50;11.35;;;;;;;;;;8425540;28;20123;-83
2023/03/19 19:21:11;;;;;;;27.35;11.70;;;;;;;;;;8433853;28;20040;-86
2023/03/19 19:25:19;;;;;;;22.63;10.20;;;;;;;;;;8433941;28;20068;-82
2023/03/19 19:29:27;;;;;;;27.67;10.88;;;;;;;;;;8414696;28;20478;-81
2023/03/19 19:33:36;;;;;;;26.30;11.88;;;;;;;;;;8432123;28;20051;-84
2023/03/19 19:37:42;;;;;;;23.17;11.52;;;;;;;;;;8415171;28;20491;-86
2023/03/19 19:41:51;;;;;;;21.38;11.57;;;;;;;;;;8433123;28;20451;-83
2023/03/19 19:45:58;;;;;;;23.75;10.82;;;;;;;;;;8415270;28;20040;-83
2023/03/19 19:50:06;;;;;;;22.75;10.93;;;;;;;;;;8432851;28;20056;-83
2023/03/19 19:54:11;;;;;;;23.45;10.77;;;;;;;;;;8418558;28;20052;-83
2023/03/19 19:58:22;;;;;;;29.27;13.75;;;;;;;;;;8432771;28;20063;-85
2023/03/19 20:02:29;;;;;;;22.70;11.47;;;;;;;;;;8432962;28;20044;-84
2023/03/19 20:06:35;;;;;;;70.43;27.90;;;;;;;;;;8430826;28;20090;-82
2023/03/19 20:10:41;;;;;;;23.30;10.60;;;;;;;;;;8421066;28;20075;-87
2023/03/19 20:14:47;;;;;;;25.33;11.32;;;;;;;;;;8431257;28;20487;-85
2023/03/19 20:18:54;;;;;;;23.42;10.50;;;;;;;;;;8380748;28;20147;-81
2023/03/19 20:23:05;;;;;;;24.98;12.65;;;;;;;;;;8430927;28;20134;-82
2023/03/19 20:27:19;;;;;;;24.83;12.20;;;;;;;;;;8432133;28;20052;-85
2023/03/19 20:31:28;;;;;;;26.42;12.07;;;;;;;;;;8433322;28;20326;-83
2023/03/19 20:35:35;;;;;;;19.15;10.48;;;;;;;;;;8435462;28;20097;-83
2023/03/19 20:39:48;;;;;;;21.67;10.75;;;;;;;;;;8434661;28;20044;-86
2023/03/19 20:43:54;;;;;;;27.25;12.60;;;;;;;;;;8418652;28;20051;-82
2023/03/19 20:48:01;;;;;;;20.45;9.63;;;;;;;;;;8397913;28;20147;-87
2023/03/19 20:52:10;;;;;;;22.98;9.70;;;;;;;;;;8426239;28;20121;-82
2023/03/19 20:56:19;;;;;;;25.63;11.45;;;;;;;;;;8431233;28;20043;-86
2023/03/19 21:00:27;;;;;;;22.77;10.85;;;;;;;;;;8430620;28;20119;-87
2023/03/19 21:04:33;;;;;;;21.23;10.60;;;;;;;;;;8406996;28;20110;-82
2023/03/19 21:08:41;;;;;;;29.70;13.85;;;;;;;;;;8427811;28;20074;-82
2023/03/19 21:12:50;;;;;;;26.23;12.77;;;;;;;;;;8430119;28;20059;-85
2023/03/19 21:16:53;;;;;;;28.17;11.57;;;;;;;;;;8411984;28;20040;-83
2023/03/19 21:20:59;;;;;;;27.63;13.30;;;;;;;;;;8411768;28;20089;-85
2023/03/19 21:25:06;;;;;;;27.98;12.65;;;;;;;;;;8429992;28;20039;-83
2023/03/19 21:29:20;;;;;;;25.73;12.13;;;;;;;;;;8430011;28;20047;-83
2023/03/19 21:33:26;;;;;;;27.98;12.20;;;;;;;;;;8429442;28;20054;-82
2023/03/19 21:37:31;;;;;;;25.20;11.43;;;;;;;;;;8429440;28;20128;-84
2023/03/19 21:41:36;;;;;;;27.73;12.30;;;;;;;;;;8429765;28;20051;-82
2023/03/19 21:45:42;;;;;;;30.08;12.25;;;;;;;;;;8429178;28;20056;-83
2023/03/19 21:49:47;;;;;;;36.80;17.25;;;;;;;;;;8428929;28;20117;-84
2023/03/19 21:53:50;;;;;;;39.15;18.42;;;;;;;;;;8428641;28;20068;-83
2023/03/19 21:57:56;;;;;;;39.45;16.58;;;;;;;;;;8429320;28;20044;-82
2023/03/19 22:02:00;;;;;;;33.90;14.45;;;;;;;;;;8428758;28;20108;-83
2023/03/19 22:06:03;;;;;;;32.28;14.18;;;;;;;;;;8419119;28;20045;-82
2023/03/19 22:10:07;;;;;;;31.30;14.05;;;;;;;;;;8425341;28;20048;-82
2023/03/19 22:14:16;;;;;;;32.03;14.32;;;;;;;;;;8428769;28;20074;-82
2023/03/19 22:18:20;;;;;;;31.10;13.65;;;;;;;;;;8428313;28;20036;-81
2023/03/19 22:22:23;;;;;;;42.35;15.55;;;;;;;;;;8428328;28;20067;-84
2023/03/19 22:26:32;;;;;;;35.10;13.80;;;;;;;;;;8428415;28;20047;-83
2023/03/19 22:30:37;;;;;;;34.25;15.00;;;;;;;;;;8428398;28;20040;-84
2023/03/19 22:34:42;;;;;;;45.10;16.70;;;;;;;;;;8428557;28;20043;-85
2023/03/19 22:38:45;;;;;;;39.15;16.80;;;;;;;;;;8428342;28;20051;-83
2023/03/19 22:42:49;;;;;;;32.92;13.55;;;;;;;;;;8427731;28;20036;-81
2023/03/19 22:46:53;;;;;;;35.65;14.75;;;;;;;;;;8431903;28;20519;-82
2023/03/19 22:50:57;;;;;;;48.13;19.15;;;;;;;;;;8435691;28;20136;-80
2023/03/19 22:55:00;;;;;;;42.28;18.77;;;;;;;;;;8437407;28;20119;-85
2023/03/19 22:59:03;;;;;;;44.17;18.00;;;;;;;;;;8434545;28;20044;-82
2023/03/19 23:03:10;;;;;;;37.83;16.95;;;;;;;;;;8434373;28;20055;-85
2023/03/19 23:07:14;;;;;;;41.00;16.88;;;;;;;;;;8421130;28;20488;-82
2023/03/19 23:11:18;;;;;;;84.70;31.35;;;;;;;;;;8433873;28;20048;-84
2023/03/19 23:15:24;;;;;;;74.72;28.80;;;;;;;;;;8433888;28;20050;-82
2023/03/19 23:19:29;;;;;;;48.67;18.85;;;;;;;;;;8433794;28;20047;-83
2023/03/19 23:23:34;;;;;;;39.15;16.90;;;;;;;;;;8433940;28;20124;-83
2023/03/19 23:27:37;;;;;;;47.13;18.00;;;;;;;;;;8433475;28;20126;-82
2023/03/19 23:31:40;;;;;;;53.47;18.40;;;;;;;;;;8433424;28;20044;-85
2023/03/19 23:35:43;;;;;;;35.65;15.43;;;;;;;;;;8433233;28;20056;-84
2023/03/19 23:39:48;;;;;;;40.97;15.23;;;;;;;;;;8419926;28;20036;-83
2023/03/19 23:43:51;;;;;;;38.13;15.85;;;;;;;;;;8433024;28;20055;-85
2023/03/19 23:47:55;;;;;;;43.35;17.70;;;;;;;;;;8433112;28;20074;-85
2023/03/19 23:51:59;;;;;;;43.53;17.20;;;;;;;;;;8432672;28;20040;-85
2023/03/19 23:56:07;;;;;;;31.25;14.18;;;;;;;;;;8433094;28;20400;-82
